CAL581 ZSQD-ZBAA
Flight info
| Callsign | CAL581 |
|---|---|
| Flight time | 1h 11m |
| Altitude | 21700 |
| Route | K0870S1040 WFG81D WFG W103 YQG W160 TUMLO W157 BEKDO/K0857S1070 W157 AVBOX AVBOX6J |
| Aircraft | B738/M-SDE2E3FGHIRWXY/LB1 |
Departure
| Time | 2026-04-20 14:58 |
|---|---|
| Airport | Qingdao Jiaodong International Airport (ZSQD) |
Arrival
| Time | 2026-04-20 16:09 |
|---|---|
| Airport | Beijing Capital International Airport (ZBAA) |
| Time | Latitude | Longitude | Altitude | Speed | Heading |
|---|---|---|---|---|---|
| 2026-04-20 14:41 | 36.27599 | 120.37630 | 41 ft | 0 kts | 76° |
| 2026-04-20 14:50 | 36.27598 | 120.37621 | 41 ft | 2 kts | 77° |
| 2026-04-20 14:51 | 36.27594 | 120.37603 | 41 ft | 2 kts | 76° |
| 2026-04-20 14:51 | 36.27591 | 120.37585 | 41 ft | 2 kts | 76° |
| 2026-04-20 14:51 | 36.27587 | 120.37567 | 41 ft | 1 kts | 76° |
| 2026-04-20 14:51 | 36.27586 | 120.37556 | 41 ft | 2 kts | 70° |
| 2026-04-20 14:52 | 36.27578 | 120.37540 | 41 ft | 2 kts | 44° |
| 2026-04-20 14:52 | 36.27566 | 120.37530 | 41 ft | 2 kts | 22° |
| 2026-04-20 14:52 | 36.27551 | 120.37526 | 41 ft | 2 kts | 0° |
| 2026-04-20 14:52 | 36.27542 | 120.37527 | 41 ft | 0 kts | 347° |
| 2026-04-20 14:53 | 36.27537 | 120.37529 | 41 ft | 0 kts | 355° |
| 2026-04-20 14:53 | 36.27531 | 120.37529 | 41 ft | 2 kts | 45° |
| 2026-04-20 14:53 | 36.27525 | 120.37527 | 41 ft | 1 kts | 347° |
| 2026-04-20 14:53 | 36.27523 | 120.37528 | 41 ft | 0 kts | 346° |
| 2026-04-20 14:54 | 36.27525 | 120.37528 | 41 ft | 2 kts | 346° |
| 2026-04-20 14:54 | 36.27581 | 120.37513 | 41 ft | 12 kts | 349° |
| 2026-04-20 14:54 | 36.27671 | 120.37486 | 41 ft | 10 kts | 336° |
| 2026-04-20 14:55 | 36.27684 | 120.37447 | 41 ft | 5 kts | 274° |
| 2026-04-20 14:55 | 36.27721 | 120.37382 | 41 ft | 13 kts | 335° |
| 2026-04-20 14:55 | 36.27831 | 120.37342 | 41 ft | 19 kts | 345° |
| 2026-04-20 14:55 | 36.27985 | 120.37295 | 41 ft | 26 kts | 346° |
| 2026-04-20 14:56 | 36.28114 | 120.37218 | 41 ft | 16 kts | 281° |
| 2026-04-20 14:56 | 36.28098 | 120.37096 | 41 ft | 12 kts | 255° |
| 2026-04-20 14:56 | 36.28066 | 120.37020 | 41 ft | 8 kts | 212° |
| 2026-04-20 14:56 | 36.28014 | 120.37009 | 41 ft | 10 kts | 174° |
| 2026-04-20 14:57 | 36.27867 | 120.37058 | 41 ft | 42 kts | 164° |
| 2026-04-20 14:57 | 36.27420 | 120.37206 | 41 ft | 89 kts | 165° |
| 2026-04-20 14:57 | 36.26613 | 120.37462 | 45 ft | 148 kts | 166° |
| 2026-04-20 14:57 | 36.25496 | 120.37785 | 273 ft | 177 kts | 167° |
| 2026-04-20 14:58 | 36.24244 | 120.37870 | 701 ft | 185 kts | 193° |
| 2026-04-20 14:58 | 36.23229 | 120.36992 | 1584 ft | 186 kts | 240° |
| 2026-04-20 14:58 | 36.23079 | 120.35532 | 2447 ft | 173 kts | 291° |
| 2026-04-20 14:58 | 36.23795 | 120.34472 | 3199 ft | 162 kts | 327° |
| 2026-04-20 14:59 | 36.24644 | 120.33671 | 3934 ft | 151 kts | 311° |
| 2026-04-20 14:59 | 36.25217 | 120.32668 | 4657 ft | 135 kts | 300° |
| 2026-04-20 14:59 | 36.25644 | 120.31669 | 5060 ft | 138 kts | 296° |
| 2026-04-20 14:59 | 36.26085 | 120.30484 | 5144 ft | 171 kts | 294° |
| 2026-04-20 15:00 | 36.26645 | 120.28932 | 4930 ft | 221 kts | 294° |
| 2026-04-20 15:00 | 36.27325 | 120.27044 | 5020 ft | 253 kts | 294° |
| 2026-04-20 15:00 | 36.28050 | 120.25028 | 5125 ft | 262 kts | 294° |
| 2026-04-20 15:00 | 36.28796 | 120.22952 | 5233 ft | 263 kts | 294° |
| 2026-04-20 15:01 | 36.29544 | 120.20867 | 5342 ft | 263 kts | 294° |
| 2026-04-20 15:01 | 36.30292 | 120.18784 | 5451 ft | 264 kts | 294° |
| 2026-04-20 15:01 | 36.30992 | 120.16698 | 5557 ft | 264 kts | 288° |
| 2026-04-20 15:01 | 36.31461 | 120.14486 | 5671 ft | 265 kts | 284° |
| 2026-04-20 15:02 | 36.31904 | 120.12300 | 5781 ft | 265 kts | 285° |
| 2026-04-20 15:02 | 36.32384 | 120.10064 | 5894 ft | 265 kts | 285° |
| 2026-04-20 15:02 | 36.32861 | 120.07864 | 6005 ft | 266 kts | 285° |
| 2026-04-20 15:02 | 36.33344 | 120.05653 | 6117 ft | 266 kts | 285° |
| 2026-04-20 15:03 | 36.33827 | 120.03445 | 6230 ft | 267 kts | 285° |
| 2026-04-20 15:03 | 36.34331 | 120.01148 | 6353 ft | 285 kts | 285° |
| 2026-04-20 15:03 | 36.34863 | 119.98721 | 6465 ft | 301 kts | 285° |
| 2026-04-20 15:03 | 36.35411 | 119.96218 | 6593 ft | 300 kts | 285° |
| 2026-04-20 15:04 | 36.35959 | 119.93715 | 6828 ft | 300 kts | 285° |
| 2026-04-20 15:04 | 36.36504 | 119.91219 | 6931 ft | 302 kts | 285° |
| 2026-04-20 15:04 | 36.37054 | 119.88699 | 7095 ft | 300 kts | 285° |
| 2026-04-20 15:04 | 36.37609 | 119.86159 | 7343 ft | 307 kts | 286° |
| 2026-04-20 15:05 | 36.38342 | 119.83690 | 7578 ft | 308 kts | 294° |
| 2026-04-20 15:05 | 36.39248 | 119.81271 | 7816 ft | 309 kts | 295° |
| 2026-04-20 15:05 | 36.40144 | 119.78857 | 8053 ft | 310 kts | 295° |
| 2026-04-20 15:05 | 36.41043 | 119.76417 | 8290 ft | 311 kts | 295° |
| 2026-04-20 15:06 | 36.41948 | 119.73959 | 8529 ft | 312 kts | 294° |
| 2026-04-20 15:06 | 36.42848 | 119.71513 | 8766 ft | 313 kts | 294° |
| 2026-04-20 15:06 | 36.43748 | 119.69067 | 9002 ft | 314 kts | 294° |
| 2026-04-20 15:06 | 36.44661 | 119.66595 | 9240 ft | 315 kts | 295° |
| 2026-04-20 15:07 | 36.45580 | 119.64111 | 9479 ft | 316 kts | 294° |
| 2026-04-20 15:07 | 36.46494 | 119.61635 | 9716 ft | 317 kts | 294° |
| 2026-04-20 15:07 | 36.47411 | 119.59148 | 9953 ft | 318 kts | 294° |
| 2026-04-20 15:07 | 36.48340 | 119.56631 | 10192 ft | 319 kts | 294° |
| 2026-04-20 15:08 | 36.49258 | 119.54140 | 10428 ft | 320 kts | 294° |
| 2026-04-20 15:08 | 36.50188 | 119.51611 | 10670 ft | 326 kts | 294° |
| 2026-04-20 15:08 | 36.51146 | 119.49007 | 10910 ft | 333 kts | 294° |
| 2026-04-20 15:08 | 36.52112 | 119.46378 | 11148 ft | 338 kts | 294° |
| 2026-04-20 15:09 | 36.53092 | 119.43707 | 11385 ft | 343 kts | 294° |
| 2026-04-20 15:09 | 36.54094 | 119.40977 | 11624 ft | 347 kts | 294° |
| 2026-04-20 15:09 | 36.55105 | 119.38219 | 11863 ft | 351 kts | 294° |
| 2026-04-20 15:09 | 36.56119 | 119.35448 | 12100 ft | 355 kts | 294° |
| 2026-04-20 15:10 | 36.57130 | 119.32685 | 12335 ft | 357 kts | 293° |
| 2026-04-20 15:10 | 36.58173 | 119.29833 | 12575 ft | 360 kts | 293° |
| 2026-04-20 15:10 | 36.59211 | 119.26989 | 12813 ft | 362 kts | 293° |
| 2026-04-20 15:10 | 36.60251 | 119.24141 | 13049 ft | 364 kts | 293° |
| 2026-04-20 15:11 | 36.61297 | 119.21272 | 13287 ft | 365 kts | 293° |
| 2026-04-20 15:11 | 36.62341 | 119.18404 | 13539 ft | 366 kts | 293° |
| 2026-04-20 15:11 | 36.63385 | 119.15537 | 13840 ft | 365 kts | 293° |
| 2026-04-20 15:11 | 36.64386 | 119.12672 | 14133 ft | 363 kts | 288° |
| 2026-04-20 15:12 | 36.64939 | 119.09596 | 14441 ft | 360 kts | 277° |
| 2026-04-20 15:12 | 36.65228 | 119.06534 | 14742 ft | 359 kts | 276° |
| 2026-04-20 15:12 | 36.65530 | 119.03432 | 15042 ft | 357 kts | 276° |
| 2026-04-20 15:12 | 36.65837 | 119.00375 | 15340 ft | 356 kts | 276° |
| 2026-04-20 15:13 | 36.66142 | 118.97313 | 15639 ft | 355 kts | 276° |
| 2026-04-20 15:13 | 36.66442 | 118.94295 | 15937 ft | 353 kts | 276° |
| 2026-04-20 15:13 | 36.66740 | 118.91295 | 16234 ft | 352 kts | 276° |
| 2026-04-20 15:13 | 36.67039 | 118.88274 | 16413 ft | 354 kts | 276° |
| 2026-04-20 15:14 | 36.67342 | 118.85201 | 16639 ft | 354 kts | 276° |
| 2026-04-20 15:14 | 36.67639 | 118.82175 | 16938 ft | 352 kts | 276° |
| 2026-04-20 15:14 | 36.67936 | 118.79157 | 17238 ft | 350 kts | 276° |
| 2026-04-20 15:14 | 36.68227 | 118.76192 | 17534 ft | 348 kts | 276° |
| 2026-04-20 15:15 | 36.68521 | 118.73179 | 17837 ft | 346 kts | 276° |
| 2026-04-20 15:15 | 36.68809 | 118.70222 | 18136 ft | 344 kts | 276° |
| 2026-04-20 15:15 | 36.69095 | 118.67278 | 18193 ft | 349 kts | 276° |
| 2026-04-20 15:15 | 36.69389 | 118.64235 | 18392 ft | 349 kts | 276° |
| 2026-04-20 15:16 | 36.69675 | 118.61285 | 18689 ft | 346 kts | 276° |
| 2026-04-20 15:16 | 36.69963 | 118.58308 | 18988 ft | 344 kts | 276° |
| 2026-04-20 15:16 | 36.70247 | 118.55353 | 19289 ft | 341 kts | 275° |
| 2026-04-20 15:16 | 36.70526 | 118.52454 | 19586 ft | 338 kts | 275° |
| 2026-04-20 15:17 | 36.70806 | 118.49542 | 19796 ft | 338 kts | 275° |
| 2026-04-20 15:17 | 36.71084 | 118.46632 | 19807 ft | 344 kts | 275° |
| 2026-04-20 15:17 | 36.71367 | 118.43650 | 19806 ft | 349 kts | 275° |
| 2026-04-20 15:17 | 36.71655 | 118.40620 | 19803 ft | 354 kts | 275° |
| 2026-04-20 15:18 | 36.71943 | 118.37562 | 19806 ft | 364 kts | 276° |
| 2026-04-20 15:18 | 36.72245 | 118.34357 | 19804 ft | 378 kts | 275° |
| 2026-04-20 15:18 | 36.72556 | 118.31029 | 19802 ft | 390 kts | 275° |
| 2026-04-20 15:18 | 36.72870 | 118.27655 | 19801 ft | 402 kts | 275° |
| 2026-04-20 15:19 | 36.73196 | 118.24162 | 19800 ft | 411 kts | 275° |
| 2026-04-20 15:19 | 36.73532 | 118.20586 | 19797 ft | 414 kts | 275° |
| 2026-04-20 15:19 | 36.73898 | 118.17032 | 19798 ft | 413 kts | 277° |
| 2026-04-20 15:19 | 36.74656 | 118.13615 | 19796 ft | 415 kts | 290° |
| 2026-04-20 15:20 | 36.75867 | 118.10323 | 19814 ft | 418 kts | 293° |
| 2026-04-20 15:20 | 36.77100 | 118.07070 | 19792 ft | 418 kts | 292° |
| 2026-04-20 15:20 | 36.78312 | 118.03769 | 20030 ft | 413 kts | 292° |
| 2026-04-20 15:20 | 36.79488 | 118.00529 | 20307 ft | 416 kts | 292° |
| 2026-04-20 15:21 | 36.80686 | 117.97210 | 20585 ft | 419 kts | 291° |
| 2026-04-20 15:21 | 36.81872 | 117.93903 | 20860 ft | 424 kts | 291° |
| 2026-04-20 15:21 | 36.83078 | 117.90527 | 21136 ft | 425 kts | 291° |
| 2026-04-20 15:21 | 36.84264 | 117.87200 | 21407 ft | 425 kts | 291° |
| 2026-04-20 15:22 | 36.85462 | 117.83830 | 21682 ft | 426 kts | 291° |
| 2026-04-20 15:22 | 36.86668 | 117.80425 | 21960 ft | 428 kts | 291° |
| 2026-04-20 15:22 | 36.87875 | 117.77013 | 22234 ft | 429 kts | 291° |
| 2026-04-20 15:22 | 36.89069 | 117.73633 | 22506 ft | 429 kts | 291° |
| 2026-04-20 15:23 | 36.90272 | 117.70221 | 22781 ft | 430 kts | 291° |
| 2026-04-20 15:23 | 36.91481 | 117.66785 | 22891 ft | 433 kts | 291° |
| 2026-04-20 15:23 | 36.92680 | 117.63375 | 22977 ft | 433 kts | 291° |
| 2026-04-20 15:23 | 36.93895 | 117.59916 | 23044 ft | 432 kts | 291° |
| 2026-04-20 15:24 | 36.95084 | 117.56524 | 23048 ft | 435 kts | 291° |
| 2026-04-20 15:24 | 36.96325 | 117.52967 | 23055 ft | 447 kts | 291° |
| 2026-04-20 15:24 | 36.97551 | 117.49459 | 23019 ft | 432 kts | 291° |
| 2026-04-20 15:24 | 36.98724 | 117.46115 | 23046 ft | 418 kts | 291° |
| 2026-04-20 15:25 | 36.99893 | 117.42757 | 23057 ft | 423 kts | 291° |
| 2026-04-20 15:25 | 37.01060 | 117.39390 | 23056 ft | 430 kts | 292° |
| 2026-04-20 15:26 | 37.04206 | 117.30316 | 23050 ft | 419 kts | 292° |
| 2026-04-20 15:26 | 37.05719 | 117.25925 | 23049 ft | 419 kts | 292° |
| 2026-04-20 15:26 | 37.06861 | 117.22608 | 23047 ft | 418 kts | 292° |
| 2026-04-20 15:26 | 37.08012 | 117.19263 | 23047 ft | 417 kts | 293° |
| 2026-04-20 15:27 | 37.09163 | 117.15913 | 23047 ft | 416 kts | 293° |
| 2026-04-20 15:27 | 37.10294 | 117.12618 | 23047 ft | 415 kts | 293° |
| 2026-04-20 15:27 | 37.11431 | 117.09301 | 23047 ft | 415 kts | 294° |
| 2026-04-20 15:27 | 37.12579 | 117.05950 | 23047 ft | 414 kts | 294° |
| 2026-04-20 15:28 | 37.13701 | 117.02677 | 23047 ft | 414 kts | 294° |
| 2026-04-20 15:28 | 37.14843 | 116.99348 | 23047 ft | 414 kts | 294° |
| 2026-04-20 15:28 | 37.15974 | 116.96051 | 23047 ft | 414 kts | 294° |
| 2026-04-20 15:28 | 37.17122 | 116.92703 | 23047 ft | 414 kts | 293° |
| 2026-04-20 15:29 | 37.18246 | 116.89425 | 22984 ft | 415 kts | 293° |
| 2026-04-20 15:29 | 37.19425 | 116.86087 | 22772 ft | 415 kts | 296° |
| 2026-04-20 15:29 | 37.20926 | 116.83038 | 22571 ft | 414 kts | 306° |
| 2026-04-20 15:29 | 37.22891 | 116.80400 | 22370 ft | 416 kts | 317° |
| 2026-04-20 15:30 | 37.25304 | 116.78401 | 22173 ft | 421 kts | 330° |
| 2026-04-20 15:30 | 37.28059 | 116.77045 | 21978 ft | 425 kts | 338° |
| 2026-04-20 15:30 | 37.30887 | 116.75996 | 21788 ft | 425 kts | 340° |
| 2026-04-20 15:30 | 37.33691 | 116.74956 | 21741 ft | 422 kts | 339° |
| 2026-04-20 15:31 | 37.36485 | 116.73898 | 21749 ft | 423 kts | 339° |
| 2026-04-20 15:31 | 37.39302 | 116.72831 | 21746 ft | 424 kts | 339° |
| 2026-04-20 15:31 | 37.42131 | 116.71761 | 21745 ft | 424 kts | 339° |
| 2026-04-20 15:31 | 37.44921 | 116.70705 | 21746 ft | 424 kts | 339° |
| 2026-04-20 15:32 | 37.47768 | 116.69626 | 21747 ft | 424 kts | 339° |
| 2026-04-20 15:32 | 37.50588 | 116.68556 | 21747 ft | 424 kts | 339° |
| 2026-04-20 15:32 | 37.53379 | 116.67497 | 21747 ft | 424 kts | 339° |
| 2026-04-20 15:32 | 37.56186 | 116.66431 | 21746 ft | 424 kts | 339° |
| 2026-04-20 15:33 | 37.59027 | 116.65350 | 21746 ft | 424 kts | 339° |
| 2026-04-20 15:33 | 37.61842 | 116.64278 | 21747 ft | 424 kts | 339° |
| 2026-04-20 15:33 | 37.64663 | 116.63203 | 21747 ft | 424 kts | 339° |
| 2026-04-20 15:33 | 37.67472 | 116.62132 | 21747 ft | 424 kts | 339° |
| 2026-04-20 15:34 | 37.70296 | 116.61055 | 21746 ft | 424 kts | 339° |
| 2026-04-20 15:34 | 37.73076 | 116.59995 | 21747 ft | 424 kts | 339° |
| 2026-04-20 15:34 | 37.75912 | 116.58910 | 21747 ft | 424 kts | 339° |
| 2026-04-20 15:34 | 37.78708 | 116.57841 | 21747 ft | 424 kts | 339° |
| 2026-04-20 15:35 | 37.81519 | 116.56765 | 21747 ft | 424 kts | 339° |
| 2026-04-20 15:35 | 37.84351 | 116.55680 | 21747 ft | 424 kts | 339° |
| 2026-04-20 15:35 | 37.87142 | 116.54610 | 21746 ft | 424 kts | 339° |
| 2026-04-20 15:35 | 37.89986 | 116.53519 | 21747 ft | 424 kts | 339° |
| 2026-04-20 15:36 | 37.92767 | 116.52451 | 21747 ft | 424 kts | 339° |
| 2026-04-20 15:36 | 37.95546 | 116.51199 | 21742 ft | 421 kts | 333° |
| 2026-04-20 15:36 | 37.98309 | 116.50001 | 21736 ft | 427 kts | 345° |
| 2026-04-20 15:36 | 38.01306 | 116.49926 | 21750 ft | 440 kts | 3° |
| 2026-04-20 15:37 | 38.04293 | 116.50797 | 21762 ft | 446 kts | 10° |
| 2026-04-20 15:37 | 38.07277 | 116.51824 | 21743 ft | 445 kts | 9° |
| 2026-04-20 15:37 | 38.10266 | 116.52753 | 21746 ft | 444 kts | 8° |
| 2026-04-20 15:37 | 38.13253 | 116.53616 | 21745 ft | 443 kts | 7° |
| 2026-04-20 15:38 | 38.16266 | 116.54459 | 21747 ft | 443 kts | 7° |
| 2026-04-20 15:38 | 38.19288 | 116.55286 | 21747 ft | 443 kts | 7° |
| 2026-04-20 15:38 | 38.22282 | 116.56090 | 21746 ft | 443 kts | 6° |
| 2026-04-20 15:38 | 38.25273 | 116.56882 | 21704 ft | 443 kts | 6° |
| 2026-04-20 15:39 | 38.28326 | 116.57680 | 21471 ft | 443 kts | 6° |
| 2026-04-20 15:39 | 38.31303 | 116.58455 | 21221 ft | 440 kts | 6° |
| 2026-04-20 15:39 | 38.34274 | 116.59224 | 20972 ft | 437 kts | 6° |
| 2026-04-20 15:39 | 38.37234 | 116.59987 | 20723 ft | 435 kts | 6° |
| 2026-04-20 15:40 | 38.40212 | 116.60751 | 20472 ft | 434 kts | 7° |
| 2026-04-20 15:40 | 38.43150 | 116.61504 | 20222 ft | 432 kts | 7° |
| 2026-04-20 15:40 | 38.46064 | 116.62251 | 19973 ft | 430 kts | 7° |
| 2026-04-20 15:40 | 38.48974 | 116.62994 | 19723 ft | 429 kts | 7° |
| 2026-04-20 15:41 | 38.51891 | 116.63740 | 19473 ft | 427 kts | 7° |
| 2026-04-20 15:41 | 38.54808 | 116.64486 | 19221 ft | 425 kts | 7° |
| 2026-04-20 15:41 | 38.57676 | 116.65218 | 18973 ft | 424 kts | 7° |
| 2026-04-20 15:41 | 38.60561 | 116.65955 | 18722 ft | 423 kts | 7° |
| 2026-04-20 15:42 | 38.63411 | 116.66682 | 18474 ft | 421 kts | 7° |
| 2026-04-20 15:42 | 38.66279 | 116.67414 | 18222 ft | 419 kts | 7° |
| 2026-04-20 15:42 | 38.69143 | 116.68147 | 17971 ft | 418 kts | 8° |
| 2026-04-20 15:42 | 38.71977 | 116.68872 | 17721 ft | 416 kts | 8° |
| 2026-04-20 15:43 | 38.74783 | 116.69591 | 17473 ft | 415 kts | 8° |
| 2026-04-20 15:43 | 38.77619 | 116.70319 | 17221 ft | 414 kts | 8° |
| 2026-04-20 15:43 | 38.80419 | 116.71038 | 16973 ft | 412 kts | 8° |
| 2026-04-20 15:43 | 38.83242 | 116.71764 | 16765 ft | 410 kts | 8° |
| 2026-04-20 15:44 | 38.86028 | 116.72481 | 16748 ft | 409 kts | 8° |
| 2026-04-20 15:44 | 38.88783 | 116.73190 | 16749 ft | 411 kts | 8° |
| 2026-04-20 15:44 | 38.89720 | 116.73432 | 16747 ft | 412 kts | 8° |
| 2026-04-20 15:45 | 39.00567 | 116.76221 | 16745 ft | 430 kts | 7° |
| 2026-04-20 15:45 | 39.02560 | 116.76732 | 16746 ft | 434 kts | 7° |
| 2026-04-20 15:45 | 39.06545 | 116.77750 | 16748 ft | 440 kts | 7° |
| 2026-04-20 15:46 | 39.08536 | 116.78262 | 16746 ft | 439 kts | 7° |
| 2026-04-20 15:46 | 39.11529 | 116.79035 | 16745 ft | 438 kts | 7° |
| 2026-04-20 15:46 | 39.14468 | 116.79796 | 16748 ft | 438 kts | 7° |
| 2026-04-20 15:46 | 39.17460 | 116.80572 | 16747 ft | 438 kts | 7° |
| 2026-04-20 15:47 | 39.20452 | 116.81348 | 16746 ft | 437 kts | 7° |
| 2026-04-20 15:47 | 39.23438 | 116.82124 | 16755 ft | 443 kts | 7° |
| 2026-04-20 15:47 | 39.26498 | 116.82918 | 16746 ft | 446 kts | 7° |
| 2026-04-20 15:47 | 39.29504 | 116.83704 | 16745 ft | 445 kts | 7° |
| 2026-04-20 15:48 | 39.32524 | 116.84493 | 16745 ft | 445 kts | 7° |
| 2026-04-20 15:48 | 39.35522 | 116.85277 | 16740 ft | 445 kts | 7° |
| 2026-04-20 15:48 | 39.38565 | 116.86071 | 16670 ft | 451 kts | 8° |
| 2026-04-20 15:48 | 39.41582 | 116.86862 | 16348 ft | 440 kts | 8° |
| 2026-04-20 15:49 | 39.44565 | 116.87650 | 16052 ft | 432 kts | 8° |
| 2026-04-20 15:49 | 39.47472 | 116.88412 | 15759 ft | 430 kts | 8° |
| 2026-04-20 15:49 | 39.50368 | 116.89175 | 15451 ft | 417 kts | 8° |
| 2026-04-20 15:49 | 39.53164 | 116.89917 | 15147 ft | 399 kts | 8° |
| 2026-04-20 15:50 | 39.55812 | 116.90617 | 14847 ft | 384 kts | 8° |
| 2026-04-20 15:50 | 39.58397 | 116.91279 | 14547 ft | 374 kts | 6° |
| 2026-04-20 15:50 | 39.60961 | 116.91697 | 14251 ft | 372 kts | 1° |
| 2026-04-20 15:50 | 39.63527 | 116.91687 | 13955 ft | 369 kts | 352° |
| 2026-04-20 15:51 | 39.66063 | 116.91332 | 13690 ft | 367 kts | 350° |
| 2026-04-20 15:51 | 39.68568 | 116.90955 | 13416 ft | 366 kts | 351° |
| 2026-04-20 15:51 | 39.71070 | 116.90585 | 13142 ft | 364 kts | 351° |
| 2026-04-20 15:51 | 39.73595 | 116.90210 | 12865 ft | 363 kts | 351° |
| 2026-04-20 15:52 | 39.76082 | 116.89836 | 12591 ft | 362 kts | 351° |
| 2026-04-20 15:52 | 39.78547 | 116.89465 | 12307 ft | 350 kts | 351° |
| 2026-04-20 15:52 | 39.80911 | 116.89111 | 12030 ft | 338 kts | 351° |
| 2026-04-20 15:53 | 39.85361 | 116.88024 | 11475 ft | 315 kts | 340° |
| 2026-04-20 15:53 | 39.87405 | 116.87170 | 11201 ft | 306 kts | 340° |
| 2026-04-20 15:53 | 39.89410 | 116.86388 | 10927 ft | 299 kts | 341° |
| 2026-04-20 15:53 | 39.91383 | 116.85642 | 10627 ft | 293 kts | 341° |
| 2026-04-20 15:54 | 39.93301 | 116.84924 | 10329 ft | 287 kts | 341° |
| 2026-04-20 15:54 | 39.95235 | 116.84204 | 10031 ft | 289 kts | 342° |
| 2026-04-20 15:54 | 39.97175 | 116.83485 | 9734 ft | 292 kts | 342° |
| 2026-04-20 15:54 | 39.99125 | 116.82764 | 9434 ft | 291 kts | 342° |
| 2026-04-20 15:55 | 40.01057 | 116.82053 | 9134 ft | 289 kts | 342° |
| 2026-04-20 15:55 | 40.02965 | 116.81348 | 8836 ft | 288 kts | 342° |
| 2026-04-20 15:55 | 40.04894 | 116.80637 | 8535 ft | 287 kts | 342° |
| 2026-04-20 15:55 | 40.06816 | 116.79927 | 8233 ft | 286 kts | 342° |
| 2026-04-20 15:56 | 40.08731 | 116.79220 | 7931 ft | 285 kts | 342° |
| 2026-04-20 15:56 | 40.10611 | 116.78525 | 7634 ft | 284 kts | 342° |
| 2026-04-20 15:56 | 40.12511 | 116.77823 | 7333 ft | 283 kts | 342° |
| 2026-04-20 15:56 | 40.14400 | 116.77124 | 7032 ft | 282 kts | 342° |
| 2026-04-20 15:57 | 40.16273 | 116.76431 | 6733 ft | 281 kts | 342° |
| 2026-04-20 15:57 | 40.18154 | 116.75735 | 6432 ft | 280 kts | 342° |
| 2026-04-20 15:57 | 40.20001 | 116.75050 | 6134 ft | 279 kts | 342° |
| 2026-04-20 15:57 | 40.21881 | 116.74353 | 5831 ft | 278 kts | 342° |
| 2026-04-20 15:58 | 40.23723 | 116.73670 | 5530 ft | 275 kts | 342° |
| 2026-04-20 15:58 | 40.25544 | 116.72995 | 5227 ft | 270 kts | 342° |
| 2026-04-20 15:58 | 40.27326 | 116.72334 | 4928 ft | 266 kts | 342° |
| 2026-04-20 15:58 | 40.29088 | 116.71679 | 4628 ft | 262 kts | 342° |
| 2026-04-20 15:59 | 40.30829 | 116.71031 | 4327 ft | 259 kts | 342° |
| 2026-04-20 15:59 | 40.32558 | 116.70389 | 4026 ft | 256 kts | 342° |
| 2026-04-20 15:59 | 40.34239 | 116.69763 | 3864 ft | 247 kts | 342° |
| 2026-04-20 15:59 | 40.35749 | 116.68884 | 3852 ft | 227 kts | 319° |
| 2026-04-20 16:00 | 40.36668 | 116.67364 | 3859 ft | 204 kts | 288° |
| 2026-04-20 16:00 | 40.36922 | 116.65637 | 3867 ft | 183 kts | 266° |
| 2026-04-20 16:00 | 40.36810 | 116.64060 | 3900 ft | 168 kts | 260° |
| 2026-04-20 16:00 | 40.36673 | 116.62592 | 3896 ft | 157 kts | 261° |
| 2026-04-20 16:01 | 40.36550 | 116.61254 | 3841 ft | 142 kts | 260° |
| 2026-04-20 16:01 | 40.36429 | 116.59963 | 3903 ft | 148 kts | 260° |
| 2026-04-20 16:01 | 40.36303 | 116.58637 | 3850 ft | 141 kts | 257° |
| 2026-04-20 16:01 | 40.35834 | 116.57564 | 3831 ft | 137 kts | 214° |
| 2026-04-20 16:02 | 40.34915 | 116.57342 | 3884 ft | 140 kts | 176° |
| 2026-04-20 16:02 | 40.33939 | 116.57435 | 3880 ft | 141 kts | 181° |
| 2026-04-20 16:02 | 40.32962 | 116.57539 | 3856 ft | 140 kts | 178° |
| 2026-04-20 16:02 | 40.31988 | 116.57668 | 3862 ft | 140 kts | 177° |
| 2026-04-20 16:03 | 40.31032 | 116.57809 | 3864 ft | 140 kts | 177° |
| 2026-04-20 16:03 | 40.30057 | 116.57959 | 3864 ft | 140 kts | 177° |
| 2026-04-20 16:03 | 40.29111 | 116.58108 | 3842 ft | 136 kts | 177° |
| 2026-04-20 16:03 | 40.28171 | 116.58256 | 3865 ft | 135 kts | 177° |
| 2026-04-20 16:04 | 40.27247 | 116.58401 | 3861 ft | 135 kts | 177° |
| 2026-04-20 16:04 | 40.26306 | 116.58550 | 3757 ft | 137 kts | 177° |
| 2026-04-20 16:04 | 40.25361 | 116.58700 | 3525 ft | 135 kts | 177° |
| 2026-04-20 16:04 | 40.24444 | 116.58845 | 3356 ft | 133 kts | 177° |
| 2026-04-20 16:05 | 40.23516 | 116.58991 | 3173 ft | 134 kts | 177° |
| 2026-04-20 16:05 | 40.22588 | 116.59138 | 2959 ft | 133 kts | 176° |
| 2026-04-20 16:05 | 40.21682 | 116.59280 | 2771 ft | 133 kts | 176° |
| 2026-04-20 16:05 | 40.20765 | 116.59425 | 2574 ft | 132 kts | 176° |
| 2026-04-20 16:06 | 40.19853 | 116.59569 | 2379 ft | 132 kts | 176° |
| 2026-04-20 16:06 | 40.18945 | 116.59712 | 2186 ft | 131 kts | 176° |
| 2026-04-20 16:06 | 40.18047 | 116.59853 | 1995 ft | 130 kts | 176° |
| 2026-04-20 16:06 | 40.17157 | 116.59993 | 1806 ft | 130 kts | 176° |
| 2026-04-20 16:07 | 40.16264 | 116.60134 | 1625 ft | 130 kts | 176° |
| 2026-04-20 16:07 | 40.15374 | 116.60278 | 1429 ft | 130 kts | 176° |
| 2026-04-20 16:07 | 40.14483 | 116.60436 | 1199 ft | 128 kts | 175° |
| 2026-04-20 16:07 | 40.13602 | 116.60593 | 1118 ft | 127 kts | 177° |
| 2026-04-20 16:08 | 40.12716 | 116.60692 | 1026 ft | 128 kts | 179° |
| 2026-04-20 16:08 | 40.11821 | 116.60811 | 714 ft | 130 kts | 174° |
| 2026-04-20 16:08 | 40.10944 | 116.60975 | 452 ft | 125 kts | 176° |
| 2026-04-20 16:08 | 40.10091 | 116.61105 | 294 ft | 126 kts | 176° |
| 2026-04-20 16:09 | 40.09214 | 116.61244 | 153 ft | 123 kts | 176° |
| 2026-04-20 16:09 | 40.08416 | 116.61355 | 126 ft | 109 kts | 178° |
| 2026-04-20 16:09 | 40.07913 | 116.61442 | 125 ft | 43 kts | 170° |
| 2026-04-20 16:09 | 40.07629 | 116.61493 | 125 ft | 39 kts | 173° |
| 2026-04-20 16:10 | 40.07423 | 116.61514 | 125 ft | 18 kts | 182° |
| 2026-04-20 16:10 | 40.07295 | 116.61489 | 125 ft | 12 kts | 194° |
| 2026-04-20 16:10 | 40.07286 | 116.61487 | 125 ft | 0 kts | 194° |
| 2026-04-20 16:10 | 40.07241 | 116.61468 | 125 ft | 10 kts | 201° |
| 2026-04-20 16:11 | 40.07186 | 116.61437 | 125 ft | 6 kts | 206° |
| 2026-04-20 16:11 | 40.07155 | 116.61417 | 125 ft | 3 kts | 205° |
| 2026-04-20 16:11 | 40.07125 | 116.61400 | 125 ft | 8 kts | 205° |
| 2026-04-20 16:11 | 40.07055 | 116.61362 | 125 ft | 10 kts | 198° |
| 2026-04-20 16:12 | 40.06995 | 116.61347 | 125 ft | 6 kts | 201° |
| 2026-04-20 16:12 | 40.06972 | 116.61319 | 125 ft | 5 kts | 240° |
| 2026-04-20 16:12 | 40.06956 | 116.61227 | 125 ft | 13 kts | 262° |
| 2026-04-20 16:12 | 40.06946 | 116.61121 | 125 ft | 10 kts | 263° |
| 2026-04-20 16:13 | 40.06941 | 116.61046 | 125 ft | 6 kts | 270° |
| 2026-04-20 16:13 | 40.06948 | 116.60995 | 125 ft | 4 kts | 308° |
| 2026-04-20 16:13 | 40.06990 | 116.60966 | 125 ft | 7 kts | 320° |
| 2026-04-20 16:13 | 40.07004 | 116.60935 | 125 ft | 1 kts | 293° |
| 2026-04-20 16:14 | 40.07009 | 116.60908 | 125 ft | 4 kts | 261° |
| 2026-04-20 16:14 | 40.07005 | 116.60860 | 125 ft | 0 kts | 263° |
| 2026-04-20 16:14 | 40.07004 | 116.60854 | 125 ft | 0 kts | 263° |
| 2026-04-20 16:14 | 40.07004 | 116.60851 | 125 ft | 0 kts | 263° |
| 2026-04-20 16:15 | 40.07003 | 116.60848 | 125 ft | 0 kts | 263° |
| 2026-04-20 16:15 | 40.07003 | 116.60845 | 125 ft | 0 kts | 263° |
| 2026-04-20 16:15 | 40.07003 | 116.60843 | 125 ft | 0 kts | 263° |
| 2026-04-20 16:15 | 40.07003 | 116.60840 | 125 ft | 0 kts | 263° |
| 2026-04-20 16:16 | 40.07002 | 116.60837 | 125 ft | 0 kts | 263° |
| 2026-04-20 16:16 | 40.07002 | 116.60834 | 125 ft | 0 kts | 263° |
| 2026-04-20 16:16 | 40.07002 | 116.60832 | 125 ft | 0 kts | 263° |
| 2026-04-20 16:16 | 40.07001 | 116.60828 | 125 ft | 0 kts | 263° |
| 2026-04-20 16:17 | 40.07001 | 116.60825 | 125 ft | 0 kts | 263° |
| 2026-04-20 16:17 | 40.07001 | 116.60823 | 125 ft | 0 kts | 263° |